• Join FlightAware (Why Join?)
  • Login
  • US Flag 
09:22PM EDT


 

Airport Tracker/Info


-or-


 

Live Flight TrackerFlight Track Log ✈ N273SK ✈ 28-Apr-2013 ✈ KCLE - KLGA

Flight Track Log - Related Links

Times and Time Zones

All times are in EDT time to prevent confusion due to time zone crossing. See the N273SK flight status page for this flight to view local times or setup timezone preferences in your user account.

Time Position Orientation Groundspeed Altitude Reporting Facility
EDT Latitude Longitude Course Direction KTS MPH feet Rate Location/Type
08:16PM 41.3975 -81.9256 276° West 198 228 3,100  Level Cleveland Center
08:17PM 41.4450 -81.9681 326° Northwest 262 302 5,200 2,100 Climbing Cleveland Center
08:18PM 41.6593 -81.5907 37° Northeast  Level FlightAware Approximate
08:18PM 41.4669 -81.8800 72° East 218 251 7,700  Level Cleveland Center
08:19PM 41.7465 -81.5035 37° Northeast  Level FlightAware Approximate
08:19PM 41.4639 -81.7608 92° East 255 293 9,600  Level Cleveland Center
08:20PM 41.8333 -81.4161 90° East  Level FlightAware Approximate
08:20PM 41.4569 -81.6386 94° East 309 356 10,800  Level Cleveland Center
08:21PM 41.4497 -81.5028 94° East 354 407 11,900 1,200 Climbing Cleveland Center
08:22PM 41.4425 -81.3614 94° East 379 436 13,300 1,500 Climbing Cleveland Center
08:23PM 41.4350 -81.2200 94° East 384 442 15,000 1,620 Climbing Cleveland Center
08:24PM 41.4272 -81.0983 95° East 384 442 16,600 1,620 Climbing Cleveland Center
08:25PM 41.4194 -80.9625 94° East 373 429 18,300 1,440 Climbing Cleveland Center
08:26PM 41.4114 -80.8239 94° East 368 423 19,500 1,140 Climbing Cleveland Center
08:27PM 41.4033 -80.6772 94° East 381 438 20,600 1,200 Climbing Cleveland Center
08:28PM 41.3931 -80.5278 95° East 400 460 22,000 1,380 Climbing Cleveland Center
08:29PM 41.3822 -80.3644 95° East 405 466 23,500 1,200 Climbing Cleveland Center
08:30PM 41.3758 -80.2289 94° East 405 466 24,500 720 Climbing Cleveland Center
08:31PM 41.3647 -80.0742 95° East 405 466 25,000 240 Climbing Cleveland Center
08:32PM 41.3411 -79.9222 102° East 410 472 25,000  Level Cleveland Center
08:33PM 41.2694 -79.8181 132° Southeast 376 433 25,000  Level Cleveland Center
08:34PM 41.1917 -79.7222 137° Southeast 376 433 25,000  Level Cleveland Center
08:35PM 41.1447 -79.5961 116° Southeast 381 438 25,000  Level Cleveland Center
08:36PM 41.1706 -79.4578 76° East 352 405 25,000  Level Cleveland Center
08:37PM 41.2425 -79.3489 49° Northeast 341 392 25,000  Level Cleveland Center
08:38PM 41.2594 -79.1992 81° East 364 419 25,000  Level Cleveland Center
08:39PM 41.2533 -79.0336 93° East 417 480 25,000  Level Cleveland Center
08:40PM 41.2489 -78.8625 92° East 431 496 25,000  Level Cleveland Center
08:42PM 41.2342 -78.5658 94° East 475 547 25,000  Level New York Center
08:43PM 41.2261 -78.3689 93° East 485 558 25,000  Level New York Center
08:44PM 41.2167 -78.1911 94° East 485 558 25,000  Level New York Center
08:45PM 41.2003 -78.0183 97° East 485 558 25,000  Level New York Center
08:46PM 41.1789 -77.8506 100° East 473 544 25,000 -480 Level New York Center
08:47PM 41.1606 -77.7025 99° East 439 505 24,100 -1,080 Descending New York Center
08:48PM 41.1433 -77.5683 100° East 397 457 22,900 -1,320 Descending New York Center
08:49PM 41.1258 -77.4372 100° East 376 433 21,600 -1,260 Descending New York Center
08:50PM 41.1097 -77.3172 100° East 364 419 20,400 -1,260 Descending New York Center
08:51PM 41.0919 -77.1833 100° East 364 419 19,100 -1,200 Descending New York Center
08:52PM 41.0739 -77.0522 100° East 359 413 18,100 -600 Descending New York Center
08:53PM 41.0575 -76.9267 100° East 354 407 18,000 -60 Descending New York Center
08:54PM 41.0411 -76.8042 100° East 343 395 18,000  Level New York Center
08:55PM 41.0222 -76.6786 101° East 343 395 18,000  Level New York Center
08:56PM 40.9939 -76.5361 105° East 343 395 18,000  Level New York Center
08:57PM 40.9658 -76.4292 109° East 348 400 18,000  Level New York Center
08:58PM 40.9325 -76.2944 108° East 348 400 18,000 -300 Level New York Center
08:59PM 40.9047 -76.1742 107° East 348 400 17,400 -1,080 Descending New York Center
09:00PM 40.8747 -76.0539 108° East 348 400 15,900 -1,560 Descending New York Center
09:01PM 40.8483 -75.9447 108° East 325 374 14,400 -1,200 Descending New York Center
09:02PM 40.8236 -75.8414 108° East 302 348 13,600 -720 Descending New York Center
09:03PM 40.8006 -75.7492 108° East 275 316 13,000 -300 Descending New York Center
09:04PM 40.7792 -75.6628 108° East 249 287 13,000  Level New York Center
09:05PM 40.7594 -75.5819 108° East 249 287 13,000  Level New York Center
09:06PM 40.7344 -75.4814 108° East 254 292 13,000 -240 Level New York Center
09:07PM 40.7128 -75.3925 108° East 254 292 12,600 -540 Descending New York Center
09:08PM 40.6956 -75.3036 104° East 248 285 12,000 -300 Descending New York Center
09:09PM 40.6819 -75.2233 103° East 241 277 12,000  Level New York Center
09:10PM 40.6642 -75.1375 105° East 241 277 12,000  Level New York Center
09:11PM 40.6153 -75.1069 155° Southeast 205 236 12,000  Level New York Center
09:12PM 40.6019 -75.1828 257° West 109 125 12,000  Level New York Center
09:13PM 40.6178 -75.2656 284° West 194 223 12,000  Level New York Center
09:14PM 40.6736 -75.2750 353° North 193 222 12,000 -180 Level New York Center
09:15PM 40.6708 -75.1844 92° East 127 146 11,700 -360 Descending New York Center
09:16PM 40.6464 -75.1089 113° Southeast 188 216 11,300 -360 Descending New York Center
09:17PM 40.6019 -75.1333 203° Southwest 168 193 11,000 -180 Descending New York Center
09:18PM 40.6108 -75.2269 277° West 185 213 11,000 -120 Level New York Center
09:19PM 40.6544 -75.2872 314° West 221 254 10,800 -540 Descending New York Center
09:20PM 40.6886 -75.2100 60° Northeast 164 189 10,000 -420 Descending New York Center
09:21PM 40.6394 -75.1303 129° Southeast 190 219 10,000 -60 Level New York Center
09:22PM 40.5961 -75.0592 129° Southeast 240 276 9,900 -60 Descending New York Center
09:23PM 40.5575 -74.9750 121° Southeast 267 307 9,900  Level New York Center
09:24PM 40.5258 -74.8692 111° Southeast 272 313 9,900 60 Level New York Center
09:24PM 40.5167 -74.8333 109° East 279 321 10,000 120 Climbing New York TRACON
09:25PM 40.5000 -74.7333 102° East 287 330 10,100  Climbing New York TRACON
09:26PM 40.4833 -74.6333 102° East 295 339 10,000 -60 Descending New York TRACON
09:27PM 40.4833 -74.5167 90° East 297 342 10,000 -360 Level New York TRACON
09:28PM 40.4833 -74.4167 90° East 289 333 9,300 -900 Descending New York TRACON
09:29PM 40.5000 -74.3167 78° East 277 319 8,200 -1,140 Descending New York TRACON
09:30PM 40.5167 -74.2333 75° East 270 311 7,200 -1,080 Descending New York TRACON
09:31PM 40.5333 -74.1333 78° East 232 267 6,100 -1,200 Descending New York TRACON
09:32PM 40.5833 -74.0833 37° Northeast 239 275 4,900 -1,080 Descending New York TRACON
09:33PM 40.6333 -74.0500 27° Northeast 237 273 4,100 -480 Descending New York TRACON
09:34PM 40.7000 -74.0333 11° North 233 268 4,000 -60 Descending New York TRACON
09:35PM 40.7500 -74.0167 14° North 213 245 4,000  Level New York TRACON
09:36PM 40.8167 -73.9833 21° North 224 258 4,000  Level New York TRACON
09:37PM 40.8833 -73.9333 30° Northeast 219 252 4,000 -240 Level New York TRACON
09:38PM 40.9333 -73.9167 14° North 217 250 3,600 -540 Descending New York TRACON
09:39PM 40.9667 -73.8667 49° Northeast 198 228 3,000 -300 Descending New York TRACON
09:40PM 40.9833 -73.8000 72° East 189 217 3,000  Level New York TRACON
09:41PM 40.9500 -73.7500 131° Southeast 175 201 3,000 -120 Level New York TRACON
09:42PM 40.9167 -73.7667 201° Southwest 160 184 2,800 -540 Descending New York TRACON
09:43PM 40.8833 -73.8000 217° Southwest 136 157 2,000 -840 Descending New York TRACON